Time;durP1;ratioP1;P1;durP2;ratioP2;P2;SDS_P1;SDS_P2;PMS_P1;PMS_P2;Temp;Humidity;BMP_temperature;BMP_pressure;BME280_temperature;BME280_humidity;BME280_pressure;Samples;Min_cycle;Max_cycle;Signal;HPM_P1;HPM_P2
2022/12/10 00:01:05;;;;;;;5.63;5.13;;;;;;;;;;6335867;28;20269;-69
2022/12/10 00:04:13;;;;;;;6.57;4.83;;;;;;;;;;6334996;28;20292;-69
2022/12/10 00:07:18;;;;;;;6.77;4.87;;;;;;;;;;6335860;28;20268;-70
2022/12/10 00:10:23;;;;;;;10.50;6.23;;;;;;;;;;6336182;28;20302;-70
2022/12/10 00:13:28;;;;;;;7.13;5.40;;;;;;;;;;6360198;28;20296;-70
2022/12/10 00:16:33;;;;;;;6.37;5.77;;;;;;;;;;6361031;28;20489;-70
2022/12/10 00:19:39;;;;;;;6.50;5.90;;;;;;;;;;6360532;28;20303;-70
2022/12/10 00:22:44;;;;;;;5.80;5.17;;;;;;;;;;6360996;28;20287;-70
2022/12/10 00:25:49;;;;;;;5.60;5.10;;;;;;;;;;6360538;28;20299;-70
2022/12/10 00:28:55;;;;;;;6.47;5.60;;;;;;;;;;6360034;28;20294;-70
2022/12/10 00:32:00;;;;;;;6.10;5.57;;;;;;;;;;6361216;28;20264;-70
2022/12/10 00:35:07;;;;;;;5.27;4.87;;;;;;;;;;6359865;28;20292;-70
2022/12/10 00:38:12;;;;;;;5.77;5.00;;;;;;;;;;6360204;28;20291;-70
2022/12/10 00:41:18;;;;;;;5.73;5.23;;;;;;;;;;6360732;28;20268;-70
2022/12/10 00:44:23;;;;;;;5.40;4.90;;;;;;;;;;6359775;28;20487;-70
2022/12/10 00:47:28;;;;;;;6.30;4.97;;;;;;;;;;6342722;28;20272;-70
2022/12/10 00:50:34;;;;;;;6.03;5.40;;;;;;;;;;6342155;28;20300;-70
2022/12/10 00:53:40;;;;;;;5.70;5.20;;;;;;;;;;6341970;28;20292;-70
2022/12/10 00:56:45;;;;;;;8.27;6.47;;;;;;;;;;6360542;28;20268;-71
2022/12/10 00:59:50;;;;;;;4.93;4.53;;;;;;;;;;6359752;28;20304;-70
2022/12/10 01:02:55;;;;;;;4.80;4.40;;;;;;;;;;6341515;28;20588;-69
2022/12/10 01:06:09;;;;;;;5.53;5.03;;;;;;;;;;6360098;28;20567;-69
2022/12/10 01:09:17;;;;;;;13.30;5.73;;;;;;;;;;6341279;28;20292;-69
2022/12/10 01:12:22;;;;;;;6.47;5.03;;;;;;;;;;6363590;28;20449;-69
2022/12/10 01:15:26;;;;;;;6.87;5.10;;;;;;;;;;6364505;28;20297;-69
2022/12/10 01:18:32;;;;;;;5.17;4.67;;;;;;;;;;6346001;28;20577;-69
2022/12/10 01:21:39;;;;;;;6.43;5.10;;;;;;;;;;6346141;28;20450;-69
2022/12/10 01:24:45;;;;;;;4.97;4.60;;;;;;;;;;6363739;28;20304;-69
2022/12/10 01:27:50;;;;;;;15.40;7.07;;;;;;;;;;6363961;28;20453;-69
2022/12/10 01:30:55;;;;;;;16.30;7.27;;;;;;;;;;6363502;28;20272;-69
2022/12/10 01:34:00;;;;;;;9.73;6.93;;;;;;;;;;6346045;28;20304;-69
2022/12/10 01:37:07;;;;;;;8.20;5.43;;;;;;;;;;6364631;28;20276;-69
2022/12/10 01:40:13;;;;;;;6.20;5.60;;;;;;;;;;6363760;28;20580;-69
2022/12/10 01:43:18;;;;;;;5.57;5.00;;;;;;;;;;6363252;28;20672;-70
2022/12/10 01:46:26;;;;;;;7.30;5.73;;;;;;;;;;6346219;28;20291;-69
2022/12/10 01:49:35;;;;;;;16.00;7.27;;;;;;;;;;6363806;28;20292;-69
2022/12/10 01:52:41;;;;;;;11.17;7.27;;;;;;;;;;6345370;28;20273;-69
2022/12/10 01:55:49;;;;;;;17.23;8.67;;;;;;;;;;6345010;28;20293;-70
2022/12/10 01:58:56;;;;;;;18.93;7.83;;;;;;;;;;6345345;28;20292;-69
2022/12/10 02:02:04;;;;;;;11.30;6.87;;;;;;;;;;6363883;28;20552;-69
2022/12/10 02:05:19;;;;;;;8.33;6.43;;;;;;;;;;6614911;22;20230;-69
2022/12/10 02:08:31;;;;;;;13.53;7.63;;;;;;;;;;6276866;28;20298;-69
2022/12/10 02:11:42;;;;;;;5.80;5.30;;;;;;;;;;6294385;28;20265;-69
2022/12/10 02:14:57;;;;;;;10.97;7.10;;;;;;;;;;6287396;28;20299;-69
2022/12/10 02:18:06;;;;;;;6.23;5.63;;;;;;;;;;6268890;28;20351;-67
2022/12/10 02:21:16;;;;;;;9.33;6.03;;;;;;;;;;6275888;28;20261;-69
2022/12/10 02:24:26;;;;;;;5.03;4.60;;;;;;;;;;6294447;28;20466;-70
2022/12/10 02:27:36;;;;;;;4.57;4.27;;;;;;;;;;6314622;28;20575;-69
2022/12/10 02:30:44;;;;;;;15.90;6.97;;;;;;;;;;6293550;28;20301;-68
2022/12/10 02:33:52;;;;;;;10.53;6.80;;;;;;;;;;6293877;28;20301;-68
2022/12/10 02:36:58;;;;;;;7.63;6.30;;;;;;;;;;6311397;28;20562;-68
2022/12/10 02:40:07;;;;;;;4.23;3.97;;;;;;;;;;6289947;28;20303;-68
2022/12/10 02:43:17;;;;;;;4.17;3.97;;;;;;;;;;6268388;28;20303;-71
2022/12/10 02:46:28;;;;;;;4.30;3.83;;;;;;;;;;6269322;28;20267;-68
2022/12/10 02:49:33;;;;;;;8.93;5.10;;;;;;;;;;6268333;28;20294;-68
2022/12/10 02:52:39;;;;;;;9.13;5.57;;;;;;;;;;6268720;28;20560;-68
2022/12/10 02:56:02;;;;;;;5.77;4.50;;;;;;;;;;6286111;28;20487;-68
2022/12/10 02:59:17;;;;;;;5.00;4.60;;;;;;;;;;6268488;28;20307;-69
2022/12/10 03:02:35;;;;;;;3.97;3.67;;;;;;;;;;6268208;28;20270;-68
2022/12/10 03:05:46;;;;;;;4.33;4.03;;;;;;;;;;6283713;28;20312;-69
2022/12/10 03:08:55;;;;;;;5.30;4.47;;;;;;;;;;6285662;28;20296;-69
2022/12/10 03:12:03;;;;;;;4.63;4.23;;;;;;;;;;6288898;28;20273;-68
2022/12/10 03:15:11;;;;;;;6.60;5.70;;;;;;;;;;6309913;28;20327;-68
2022/12/10 03:18:19;;;;;;;10.63;6.07;;;;;;;;;;6309955;28;20304;-69
2022/12/10 03:21:25;;;;;;;13.83;7.90;;;;;;;;;;6310545;28;20265;-69
2022/12/10 03:24:30;;;;;;;12.10;8.20;;;;;;;;;;6309796;28;20301;-68
2022/12/10 03:27:35;;;;;;;11.30;6.80;;;;;;;;;;6310643;28;20571;-68
2022/12/10 03:30:41;;;;;;;22.50;9.17;;;;;;;;;;6310159;28;20299;-68
2022/12/10 03:33:48;;;;;;;10.17;6.37;;;;;;;;;;6309388;28;20295;-68
2022/12/10 03:36:53;;;;;;;14.63;6.87;;;;;;;;;;6310653;28;20273;-69
2022/12/10 03:39:58;;;;;;;5.03;4.60;;;;;;;;;;6312303;28;20313;-68
2022/12/10 03:43:03;;;;;;;12.10;6.83;;;;;;;;;;6309783;28;20373;-68
2022/12/10 03:46:08;;;;;;;5.60;5.10;;;;;;;;;;6309864;28;20290;-68
2022/12/10 03:49:15;;;;;;;4.90;4.50;;;;;;;;;;6309635;28;20475;-68
2022/12/10 03:52:20;;;;;;;4.50;4.30;;;;;;;;;;6310046;28;20270;-68
2022/12/10 03:55:25;;;;;;;4.40;4.20;;;;;;;;;;6309645;28;20302;-68
2022/12/10 03:58:30;;;;;;;3.73;3.53;;;;;;;;;;6309730;28;20291;-68
2022/12/10 04:01:35;;;;;;;3.43;3.33;;;;;;;;;;6298369;28;20267;-68
2022/12/10 04:04:41;;;;;;;5.60;4.63;;;;;;;;;;6296528;28;20309;-68
2022/12/10 04:07:46;;;;;;;4.70;4.30;;;;;;;;;;6289949;28;20615;-68
2022/12/10 04:10:51;;;;;;;5.13;4.60;;;;;;;;;;6294323;28;20568;-68
2022/12/10 04:17:18;;;;;;;6.37;4.77;;;;;;;;;;6308977;28;20263;-68
2022/12/10 04:27:12;;;;;;;3.07;2.97;;;;;;;;;;6284062;28;20273;-68
2022/12/10 04:30:17;;;;;;;3.30;3.20;;;;;;;;;;6284732;28;20275;-68
2022/12/10 04:33:22;;;;;;;3.20;3.10;;;;;;;;;;6284219;28;20298;-69
2022/12/10 04:36:28;;;;;;;3.27;3.07;;;;;;;;;;6293761;28;20266;-68
2022/12/10 04:39:33;;;;;;;3.47;3.37;;;;;;;;;;6309172;28;20358;-68
2022/12/10 04:42:38;;;;;;;3.43;3.33;;;;;;;;;;6291703;28;20295;-68
2022/12/10 04:45:43;;;;;;;3.47;3.37;;;;;;;;;;6310395;28;20295;-68
2022/12/10 04:48:48;;;;;;;3.43;3.33;;;;;;;;;;6313932;28;20291;-68
2022/12/10 04:51:55;;;;;;;3.30;3.20;;;;;;;;;;6316655;28;20266;-68
2022/12/10 04:55:00;;;;;;;3.17;3.07;;;;;;;;;;6313652;28;20297;-68
2022/12/10 04:58:05;;;;;;;3.27;3.17;;;;;;;;;;6313398;28;20296;-68
2022/12/10 05:01:12;;;;;;;3.43;3.17;;;;;;;;;;6313711;28;20266;-69
2022/12/10 05:04:19;;;;;;;3.10;3.00;;;;;;;;;;6313157;28;20483;-69
2022/12/10 05:07:25;;;;;;;2.90;2.83;;;;;;;;;;6313433;28;20287;-68
2022/12/10 05:10:30;;;;;;;3.00;2.90;;;;;;;;;;6304666;28;20263;-68
2022/12/10 05:13:35;;;;;;;3.00;2.97;;;;;;;;;;6287979;28;20299;-69
2022/12/10 05:16:40;;;;;;;2.97;2.90;;;;;;;;;;6288624;28;20370;-68
2022/12/10 05:19:45;;;;;;;3.20;3.00;;;;;;;;;;6288046;28;20299;-69
2022/12/10 05:26:16;;;;;;;3.10;3.00;;;;;;;;;;6288205;28;20459;-68
2022/12/10 05:29:21;;;;;;;3.03;2.93;;;;;;;;;;6287889;28;20328;-69
2022/12/10 05:32:26;;;;;;;2.80;2.80;;;;;;;;;;6287802;28;20292;-69
2022/12/10 05:35:31;;;;;;;3.27;3.07;;;;;;;;;;6287971;28;20575;-70
2022/12/10 05:38:38;;;;;;;3.10;3.00;;;;;;;;;;6287775;28;20598;-69
2022/12/10 05:41:45;;;;;;;3.10;3.00;;;;;;;;;;6288364;28;20430;-69
2022/12/10 05:44:50;;;;;;;2.90;2.80;;;;;;;;;;6287576;28;20291;-69
2022/12/10 05:47:55;;;;;;;3.10;3.00;;;;;;;;;;6287169;28;20485;-69
2022/12/10 05:51:03;;;;;;;3.00;2.90;;;;;;;;;;6287961;28;20431;-69
2022/12/10 05:54:11;;;;;;;3.07;3.00;;;;;;;;;;6287401;28;20300;-69
2022/12/10 05:57:16;;;;;;;2.90;2.83;;;;;;;;;;6287157;28;20275;-69
2022/12/10 06:00:23;;;;;;;3.20;3.10;;;;;;;;;;6287678;28;20279;-68
2022/12/10 06:03:29;;;;;;;2.87;2.77;;;;;;;;;;6289127;28;20294;-69
2022/12/10 06:06:35;;;;;;;2.90;2.80;;;;;;;;;;6260396;28;20291;-69
2022/12/10 06:09:41;;;;;;;2.93;2.90;;;;;;;;;;6262012;28;20352;-69
2022/12/10 06:12:46;;;;;;;3.30;3.07;;;;;;;;;;6262201;28;20316;-68
2022/12/10 06:15:51;;;;;;;3.20;3.10;;;;;;;;;;6261930;28;20275;-70
2022/12/10 06:18:57;;;;;;;3.47;3.37;;;;;;;;;;6261942;28;20511;-68
2022/12/10 06:22:02;;;;;;;3.17;3.03;;;;;;;;;;6261841;28;20273;-68
2022/12/10 06:25:09;;;;;;;3.03;2.93;;;;;;;;;;6261462;28;20277;-68
2022/12/10 06:28:14;;;;;;;2.97;2.87;;;;;;;;;;6244172;28;20303;-68
2022/12/10 06:31:19;;;;;;;3.20;3.10;;;;;;;;;;6262126;28;20456;-68
2022/12/10 06:34:24;;;;;;;3.53;3.43;;;;;;;;;;6261421;28;20292;-68
2022/12/10 06:37:30;;;;;;;3.27;3.17;;;;;;;;;;6261332;28;20300;-68
2022/12/10 06:40:39;;;;;;;3.17;3.07;;;;;;;;;;6261610;28;20271;-68
2022/12/10 06:43:44;;;;;;;3.43;3.33;;;;;;;;;;6261067;28;20296;-69
2022/12/10 06:46:49;;;;;;;3.33;3.17;;;;;;;;;;6261059;28;20288;-68
2022/12/10 06:49:54;;;;;;;3.23;3.03;;;;;;;;;;6261055;28;20297;-69
2022/12/10 06:52:59;;;;;;;3.40;3.30;;;;;;;;;;6261444;28;20291;-69
2022/12/10 06:56:07;;;;;;;3.40;3.10;;;;;;;;;;6261633;28;20478;-69
2022/12/10 06:59:12;;;;;;;3.20;3.10;;;;;;;;;;6260902;28;20296;-68
2022/12/10 07:02:17;;;;;;;2.77;2.73;;;;;;;;;;6261088;28;20277;-69
2022/12/10 07:05:22;;;;;;;2.97;2.90;;;;;;;;;;6276215;28;20303;-68
2022/12/10 07:08:27;;;;;;;3.13;3.03;;;;;;;;;;6285254;28;20295;-69
2022/12/10 07:11:33;;;;;;;3.10;3.00;;;;;;;;;;6285863;28;20266;-68
2022/12/10 07:14:38;;;;;;;3.07;2.90;;;;;;;;;;6285632;28;20311;-68
2022/12/10 07:17:43;;;;;;;2.97;2.87;;;;;;;;;;6270041;28;20575;-68
2022/12/10 07:20:48;;;;;;;3.43;3.33;;;;;;;;;;6285262;28;20273;-69
2022/12/10 07:23:54;;;;;;;3.27;3.17;;;;;;;;;;6284705;28;20292;-69
2022/12/10 07:27:01;;;;;;;3.40;3.20;;;;;;;;;;6285431;28;20283;-68
2022/12/10 07:30:06;;;;;;;3.10;3.00;;;;;;;;;;6284502;28;20273;-68
2022/12/10 07:33:12;;;;;;;3.27;3.17;;;;;;;;;;6267579;28;20297;-68
2022/12/10 07:36:17;;;;;;;3.07;2.90;;;;;;;;;;6285277;28;20370;-68
2022/12/10 07:39:22;;;;;;;3.27;3.13;;;;;;;;;;6267434;28;20468;-68
2022/12/10 07:42:28;;;;;;;3.47;3.37;;;;;;;;;;6284766;28;20290;-68
2022/12/10 07:45:34;;;;;;;3.33;3.17;;;;;;;;;;6285153;28;20274;-68
2022/12/10 07:48:40;;;;;;;2.80;2.70;;;;;;;;;;6284583;28;20295;-69
2022/12/10 07:51:46;;;;;;;3.00;2.97;;;;;;;;;;6284856;28;20448;-67
2022/12/10 07:54:51;;;;;;;2.97;2.93;;;;;;;;;;6284412;28;20299;-69
2022/12/10 07:57:57;;;;;;;3.30;3.20;;;;;;;;;;6284200;28;20305;-69
2022/12/10 08:01:08;;;;;;;3.23;3.13;;;;;;;;;;6284394;28;20358;-69
2022/12/10 08:04:13;;;;;;;3.03;2.93;;;;;;;;;;6277786;28;20307;-68
2022/12/10 08:07:18;;;;;;;2.93;2.90;;;;;;;;;;6259118;28;20287;-69
2022/12/10 08:10:23;;;;;;;3.10;3.00;;;;;;;;;;6260072;28;20260;-69
2022/12/10 08:13:29;;;;;;;3.37;3.07;;;;;;;;;;6259921;28;20293;-69
2022/12/10 08:16:34;;;;;;;3.30;3.10;;;;;;;;;;6260271;28;20265;-69
2022/12/10 08:19:40;;;;;;;3.13;3.03;;;;;;;;;;6259551;28;20511;-69
2022/12/10 08:22:45;;;;;;;3.70;3.50;;;;;;;;;;6264202;28;20428;-69
2022/12/10 08:25:50;;;;;;;3.30;3.20;;;;;;;;;;6264704;28;20522;-69
2022/12/10 08:28:57;;;;;;;3.37;3.27;;;;;;;;;;6268207;28;20484;-70
2022/12/10 08:32:02;;;;;;;3.57;3.47;;;;;;;;;;6265659;28;20264;-69
2022/12/10 08:35:08;;;;;;;3.33;3.13;;;;;;;;;;6263536;28;20273;-69
2022/12/10 08:38:13;;;;;;;3.60;3.40;;;;;;;;;;6263898;28;20296;-69
2022/12/10 08:41:19;;;;;;;3.20;3.10;;;;;;;;;;6264785;28;20266;-69
2022/12/10 08:44:25;;;;;;;3.27;3.17;;;;;;;;;;6246380;28;20301;-69
2022/12/10 08:47:30;;;;;;;3.43;3.33;;;;;;;;;;6263819;28;20293;-69
2022/12/10 08:50:35;;;;;;;3.67;3.57;;;;;;;;;;6264475;28;20268;-69
2022/12/10 08:53:41;;;;;;;3.67;3.57;;;;;;;;;;6263554;28;20588;-69
2022/12/10 08:56:46;;;;;;;3.50;3.40;;;;;;;;;;6264179;28;20270;-68
2022/12/10 08:59:52;;;;;;;3.20;3.10;;;;;;;;;;6264302;28;20307;-69
2022/12/10 09:02:57;;;;;;;3.37;3.20;;;;;;;;;;6263891;28;20285;-69
2022/12/10 09:06:04;;;;;;;3.70;3.60;;;;;;;;;;6285010;28;20321;-68
2022/12/10 09:09:09;;;;;;;3.53;3.33;;;;;;;;;;6288370;28;20461;-69
2022/12/10 09:12:14;;;;;;;3.30;3.20;;;;;;;;;;6288431;28;20263;-70
2022/12/10 09:15:20;;;;;;;4.50;4.20;;;;;;;;;;6288591;28;20273;-68
2022/12/10 09:18:25;;;;;;;3.70;3.50;;;;;;;;;;6287922;28;20294;-69
2022/12/10 09:21:30;;;;;;;4.20;4.00;;;;;;;;;;6288211;28;20272;-69
2022/12/10 09:24:35;;;;;;;3.27;3.17;;;;;;;;;;6288297;28;20317;-68
2022/12/10 09:27:40;;;;;;;3.90;3.70;;;;;;;;;;6287593;28;20573;-68
2022/12/10 09:30:46;;;;;;;3.77;3.67;;;;;;;;;;6288080;28;20273;-68
2022/12/10 09:33:53;;;;;;;3.97;3.67;;;;;;;;;;6287161;28;20403;-69
2022/12/10 09:36:58;;;;;;;5.60;5.10;;;;;;;;;;6280248;28;20293;-70
2022/12/10 09:40:04;;;;;;;4.60;4.40;;;;;;;;;;6288487;28;20304;-70
2022/12/10 09:43:17;;;;;;;4.57;4.17;;;;;;;;;;6289371;28;20296;-69
2022/12/10 09:46:28;;;;;;;10.57;8.20;;;;;;;;;;6270280;28;20272;-69
2022/12/10 09:49:47;;;;;;;4.90;4.50;;;;;;;;;;6269548;28;20303;-69
2022/12/10 09:52:54;;;;;;;5.57;5.07;;;;;;;;;;6287464;28;20298;-67
2022/12/10 09:56:00;;;;;;;22.93;14.00;;;;;;;;;;6270180;28;20273;-69
2022/12/10 09:59:12;;;;;;;11.27;8.47;;;;;;;;;;6287257;28;20592;-68
2022/12/10 10:02:23;;;;;;;8.60;7.70;;;;;;;;;;6287176;28;20269;-69
2022/12/10 10:05:29;;;;;;;5.10;4.73;;;;;;;;;;6287338;28;20300;-69
2022/12/10 10:08:37;;;;;;;5.00;4.67;;;;;;;;;;6286932;28;20300;-68
2022/12/10 10:11:42;;;;;;;9.33;5.10;;;;;;;;;;6287071;28;20261;-68
2022/12/10 10:14:47;;;;;;;4.60;4.30;;;;;;;;;;6287043;28;20470;-69
2022/12/10 10:17:54;;;;;;;5.00;4.57;;;;;;;;;;6286657;28;20321;-68
2022/12/10 10:21:00;;;;;;;4.33;4.10;;;;;;;;;;6286759;28;20440;-69
2022/12/10 10:24:07;;;;;;;4.23;4.03;;;;;;;;;;6286826;28;20299;-69
2022/12/10 10:27:17;;;;;;;4.17;3.93;;;;;;;;;;6286663;28;20271;-69
2022/12/10 10:30:23;;;;;;;4.03;3.83;;;;;;;;;;6287028;28;20493;-69
2022/12/10 10:33:30;;;;;;;6.20;5.47;;;;;;;;;;6286460;28;20292;-69
2022/12/10 10:36:37;;;;;;;4.17;3.87;;;;;;;;;;6287040;28;20273;-68
2022/12/10 10:39:48;;;;;;;4.13;3.93;;;;;;;;;;6286524;28;20299;-68
2022/12/10 10:42:55;;;;;;;10.90;8.17;;;;;;;;;;6285474;28;20293;-69
2022/12/10 10:46:02;;;;;;;6.33;5.73;;;;;;;;;;6268631;28;20265;-69
2022/12/10 10:49:21;;;;;;;5.37;4.90;;;;;;;;;;6286054;28;20558;-69
2022/12/10 10:52:30;;;;;;;5.47;5.00;;;;;;;;;;6285439;28;20300;-69
2022/12/10 10:55:35;;;;;;;5.10;4.70;;;;;;;;;;6246254;28;20355;-69
2022/12/10 10:58:51;;;;;;;5.57;5.17;;;;;;;;;;6260424;28;20304;-69
2022/12/10 11:01:58;;;;;;;5.03;4.67;;;;;;;;;;6261598;28;20269;-68
2022/12/10 11:05:08;;;;;;;4.70;4.30;;;;;;;;;;6260415;28;20310;-69
2022/12/10 11:08:17;;;;;;;4.60;4.10;;;;;;;;;;6260543;28;20295;-69
2022/12/10 11:11:32;;;;;;;4.90;4.50;;;;;;;;;;6277454;28;20269;-69
2022/12/10 11:14:41;;;;;;;4.20;3.90;;;;;;;;;;6285797;28;20377;-68
2022/12/10 11:17:49;;;;;;;3.90;3.70;;;;;;;;;;6285667;28;20290;-69
2022/12/10 11:21:01;;;;;;;6.23;4.47;;;;;;;;;;6285950;28;20272;-69
2022/12/10 11:24:12;;;;;;;4.40;4.10;;;;;;;;;;6284937;28;20297;-69
2022/12/10 11:27:38;;;;;;;4.20;3.90;;;;;;;;;;6285008;28;20268;-69
2022/12/10 11:30:49;;;;;;;5.20;4.23;;;;;;;;;;6285747;28;20284;-69
2022/12/10 11:34:00;;;;;;;4.40;4.00;;;;;;;;;;6285395;28;20613;-69
2022/12/10 11:37:13;;;;;;;4.27;3.97;;;;;;;;;;6286454;28;20269;-69
2022/12/10 11:40:34;;;;;;;4.30;4.10;;;;;;;;;;6250655;28;20272;-69
2022/12/10 11:43:54;;;;;;;3.73;3.53;;;;;;;;;;6285198;28;20296;-69
2022/12/10 11:47:25;;;;;;;4.23;4.00;;;;;;;;;;6285496;28;20499;-71
2022/12/10 11:50:37;;;;;;;5.30;3.97;;;;;;;;;;6282503;28;20362;-70
2022/12/10 11:53:56;;;;;;;4.23;3.97;;;;;;;;;;6284742;28;20380;-70
2022/12/10 11:57:05;;;;;;;4.63;4.30;;;;;;;;;;6267389;28;20264;-70
2022/12/10 12:00:19;;;;;;;5.67;4.13;;;;;;;;;;6266293;28;20338;-70
2022/12/10 12:03:53;;;;;;;3.93;3.60;;;;;;;;;;6285281;28;20291;-70
2022/12/10 12:07:23;;;;;;;3.93;3.63;;;;;;;;;;6284939;28;20273;-69
2022/12/10 12:10:53;;;;;;;4.30;4.00;;;;;;;;;;6283538;28;20288;-69
2022/12/10 12:14:02;;;;;;;4.53;4.30;;;;;;;;;;6270669;28;20297;-70
2022/12/10 12:17:14;;;;;;;3.97;3.77;;;;;;;;;;6283982;28;20569;-70
2022/12/10 12:20:20;;;;;;;3.90;3.67;;;;;;;;;;6284895;28;20277;-69
2022/12/10 12:23:29;;;;;;;4.80;4.40;;;;;;;;;;6266916;28;20408;-69
2022/12/10 12:26:39;;;;;;;5.37;4.97;;;;;;;;;;6284438;28;20272;-70
2022/12/10 12:29:46;;;;;;;4.40;4.20;;;;;;;;;;6284050;28;20580;-69
2022/12/10 12:32:55;;;;;;;4.10;3.90;;;;;;;;;;6266542;28;20289;-69
2022/12/10 12:36:04;;;;;;;3.63;3.43;;;;;;;;;;6277258;28;20294;-70
2022/12/10 12:39:15;;;;;;;3.30;3.10;;;;;;;;;;6284105;28;20598;-69
2022/12/10 12:42:27;;;;;;;3.87;3.53;;;;;;;;;;6284114;28;20443;-70
2022/12/10 12:45:39;;;;;;;3.30;3.20;;;;;;;;;;6284669;28;20268;-70
2022/12/10 12:48:51;;;;;;;2.87;2.87;;;;;;;;;;6283801;28;20317;-69
2022/12/10 12:51:59;;;;;;;3.40;3.30;;;;;;;;;;6276078;28;20271;-69
2022/12/10 12:55:10;;;;;;;4.37;4.03;;;;;;;;;;6283999;28;20297;-69
2022/12/10 12:58:24;;;;;;;4.80;3.50;;;;;;;;;;6283793;28;20724;-69
2022/12/10 13:01:35;;;;;;;4.43;4.07;;;;;;;;;;6284388;28;20283;-69
2022/12/10 13:04:40;;;;;;;7.57;6.37;;;;;;;;;;6283671;28;20306;-69
2022/12/10 13:07:46;;;;;;;5.77;5.17;;;;;;;;;;6286377;28;20577;-70
2022/12/10 13:10:52;;;;;;;4.17;3.97;;;;;;;;;;6288619;28;20282;-69
2022/12/10 13:14:15;;;;;;;3.93;3.80;;;;;;;;;;6288022;28;20294;-70
2022/12/10 13:17:29;;;;;;;4.73;4.33;;;;;;;;;;6288433;28;20277;-70
2022/12/10 13:20:36;;;;;;;4.10;3.80;;;;;;;;;;6273063;28;20291;-70
2022/12/10 13:23:50;;;;;;;4.13;3.87;;;;;;;;;;6287892;28;20293;-69
2022/12/10 13:27:06;;;;;;;3.20;3.10;;;;;;;;;;6270609;28;20266;-69
2022/12/10 13:30:37;;;;;;;3.60;3.50;;;;;;;;;;6286988;28;20292;-70
2022/12/10 13:33:51;;;;;;;3.40;3.30;;;;;;;;;;6287576;28;20297;-69
2022/12/10 13:37:16;;;;;;;5.73;5.33;;;;;;;;;;6270385;28;20269;-70
2022/12/10 13:40:25;;;;;;;3.30;3.20;;;;;;;;;;6286925;28;20277;-69
2022/12/10 13:47:02;;;;;;;3.43;3.07;;;;;;;;;;6271799;28;20282;-70
2022/12/10 13:50:15;;;;;;;3.17;3.10;;;;;;;;;;6286658;28;20297;-70
2022/12/10 13:53:25;;;;;;;3.30;3.20;;;;;;;;;;6287211;28;20294;-70
2022/12/10 13:56:33;;;;;;;3.30;3.20;;;;;;;;;;6269777;28;20265;-69
2022/12/10 13:59:44;;;;;;;3.50;3.30;;;;;;;;;;6287309;28;20293;-69
2022/12/10 14:03:08;;;;;;;3.23;3.13;;;;;;;;;;6286771;28;20471;-70
2022/12/10 14:06:17;;;;;;;3.40;3.10;;;;;;;;;;6288161;28;20349;-69
2022/12/10 14:09:26;;;;;;;4.33;4.13;;;;;;;;;;6287496;28;20301;-70
2022/12/10 14:12:34;;;;;;;3.87;3.60;;;;;;;;;;6287276;28;20293;-71
2022/12/10 14:15:39;;;;;;;3.20;3.00;;;;;;;;;;6287184;28;20272;-69
2022/12/10 14:18:50;;;;;;;2.97;2.83;;;;;;;;;;6287027;28;20310;-69
2022/12/10 14:21:55;;;;;;;4.27;3.90;;;;;;;;;;6287368;28;20278;-70
2022/12/10 14:25:01;;;;;;;2.97;2.83;;;;;;;;;;6287047;28;20466;-70
2022/12/10 14:28:14;;;;;;;3.37;3.10;;;;;;;;;;6286867;28;20304;-69
2022/12/10 14:31:21;;;;;;;3.27;3.07;;;;;;;;;;6271769;28;20282;-70
2022/12/10 14:34:29;;;;;;;3.13;3.03;;;;;;;;;;6286900;28;20292;-70
2022/12/10 14:37:37;;;;;;;3.03;2.93;;;;;;;;;;6286446;28;20288;-70
2022/12/10 14:40:42;;;;;;;3.17;2.87;;;;;;;;;;6287077;28;20271;-69
2022/12/10 14:43:48;;;;;;;2.70;2.60;;;;;;;;;;6286102;28;20301;-70
2022/12/10 14:46:53;;;;;;;5.50;4.90;;;;;;;;;;6286991;28;20268;-69
2022/12/10 14:50:02;;;;;;;3.43;3.30;;;;;;;;;;6286688;28;20299;-69
2022/12/10 14:53:15;;;;;;;4.23;3.93;;;;;;;;;;6286078;28;20294;-69
2022/12/10 14:56:24;;;;;;;3.13;3.10;;;;;;;;;;6286475;28;20288;-70
2022/12/10 14:59:34;;;;;;;3.70;3.43;;;;;;;;;;6285736;28;20291;-70
2022/12/10 15:02:40;;;;;;;3.20;3.10;;;;;;;;;;6285670;28;20296;-69
2022/12/10 15:05:56;;;;;;;3.80;3.53;;;;;;;;;;6286627;28;20295;-69
2022/12/10 15:09:01;;;;;;;3.50;3.30;;;;;;;;;;6285674;28;20333;-69
2022/12/10 15:12:06;;;;;;;2.90;2.80;;;;;;;;;;6285143;28;20299;-69
2022/12/10 15:15:16;;;;;;;2.83;2.73;;;;;;;;;;6286076;28;20456;-69
2022/12/10 15:18:27;;;;;;;2.97;2.87;;;;;;;;;;6285473;28;20296;-69
2022/12/10 15:21:43;;;;;;;3.93;3.50;;;;;;;;;;6285577;28;20210;-69
2022/12/10 15:24:48;;;;;;;3.27;3.10;;;;;;;;;;6285002;28;20297;-69
2022/12/10 15:27:59;;;;;;;3.23;2.90;;;;;;;;;;6285317;28;20551;-71
2022/12/10 15:31:13;;;;;;;2.90;2.80;;;;;;;;;;6269605;28;20298;-68
2022/12/10 15:34:19;;;;;;;2.80;2.60;;;;;;;;;;6284927;28;20295;-70
2022/12/10 15:37:27;;;;;;;3.10;2.90;;;;;;;;;;6284983;28;20274;-69
2022/12/10 15:40:33;;;;;;;3.23;3.03;;;;;;;;;;6285031;28;20272;-70
2022/12/10 15:43:37;;;;;;;2.93;2.83;;;;;;;;;;6288242;28;20324;-72
2022/12/10 15:46:49;;;;;;;2.93;2.73;;;;;;;;;;6285326;28;20275;-68
2022/12/10 15:49:55;;;;;;;2.93;2.83;;;;;;;;;;6284492;28;20323;-69
2022/12/10 15:53:01;;;;;;;2.50;2.40;;;;;;;;;;6284400;28;20287;-69
2022/12/10 15:56:07;;;;;;;2.83;2.63;;;;;;;;;;6284913;28;20547;-70
2022/12/10 15:59:12;;;;;;;2.40;2.30;;;;;;;;;;6284736;28;20297;-71
2022/12/10 16:02:33;;;;;;;35.40;15.87;;;;;;;;;;6284271;28;20279;-70
2022/12/10 16:05:38;;;;;;;11.67;9.87;;;;;;;;;;6284908;28;20294;-70
2022/12/10 16:08:45;;;;;;;3.00;2.90;;;;;;;;;;6284197;28;20399;-69
2022/12/10 16:11:49;;;;;;;3.20;3.10;;;;;;;;;;6284412;28;20466;-70
2022/12/10 16:14:59;;;;;;;3.00;2.90;;;;;;;;;;6267037;28;20568;-69
2022/12/10 16:18:06;;;;;;;3.20;3.10;;;;;;;;;;6284192;28;20283;-69
2022/12/10 16:21:11;;;;;;;2.80;2.60;;;;;;;;;;6284455;28;20278;-69
2022/12/10 16:24:18;;;;;;;3.70;3.60;;;;;;;;;;6284403;28;20293;-68
2022/12/10 16:27:23;;;;;;;3.27;3.17;;;;;;;;;;6283783;28;20314;-69
2022/12/10 16:30:33;;;;;;;2.90;2.80;;;;;;;;;;6284690;28;20273;-70
2022/12/10 16:33:43;;;;;;;3.10;2.73;;;;;;;;;;6284303;28;20300;-70
2022/12/10 16:36:49;;;;;;;2.63;2.53;;;;;;;;;;6284661;28;20276;-70
2022/12/10 16:39:55;;;;;;;3.00;2.90;;;;;;;;;;6283711;28;20589;-70
2022/12/10 16:43:04;;;;;;;3.30;3.00;;;;;;;;;;6287776;28;20290;-72
2022/12/10 16:46:11;;;;;;;10.13;7.83;;;;;;;;;;6289227;28;20270;-69
2022/12/10 16:49:16;;;;;;;3.80;3.50;;;;;;;;;;6271376;28;20293;-72
2022/12/10 16:52:21;;;;;;;3.60;3.30;;;;;;;;;;6288638;28;20298;-72
2022/12/10 16:55:28;;;;;;;3.53;3.37;;;;;;;;;;6293541;28;20260;-72
2022/12/10 16:58:32;;;;;;;3.00;2.90;;;;;;;;;;6289062;28;20303;-70
2022/12/10 17:01:38;;;;;;;3.23;2.90;;;;;;;;;;6289379;28;20273;-70
2022/12/10 17:04:43;;;;;;;2.60;2.50;;;;;;;;;;6288057;28;20312;-71
2022/12/10 17:07:48;;;;;;;3.00;2.90;;;;;;;;;;6288269;28;20288;-67
2022/12/10 17:14:22;;;;;;;3.37;3.27;;;;;;;;;;6274896;28;20295;-68
2022/12/10 17:17:27;;;;;;;3.50;3.40;;;;;;;;;;6288150;28;20300;-70
2022/12/10 17:20:33;;;;;;;3.87;3.67;;;;;;;;;;6288753;28;20270;-66
2022/12/10 17:23:38;;;;;;;3.60;3.30;;;;;;;;;;6287959;28;20320;-69
2022/12/10 17:26:47;;;;;;;3.20;3.00;;;;;;;;;;6288370;28;20279;-70
2022/12/10 17:29:53;;;;;;;4.40;4.10;;;;;;;;;;6288384;28;20299;-70
2022/12/10 17:32:58;;;;;;;3.93;3.60;;;;;;;;;;6287520;28;20308;-70
2022/12/10 17:36:05;;;;;;;3.30;3.20;;;;;;;;;;6287909;28;20278;-70
2022/12/10 17:39:14;;;;;;;3.33;2.97;;;;;;;;;;6288068;28;20296;-72
2022/12/10 17:42:27;;;;;;;2.97;2.80;;;;;;;;;;6287793;28;20320;-70
2022/12/10 17:45:32;;;;;;;5.60;4.97;;;;;;;;;;6288027;28;20351;-71
2022/12/10 17:48:37;;;;;;;4.23;4.03;;;;;;;;;;6288214;28;20299;-70
2022/12/10 17:51:42;;;;;;;3.80;3.57;;;;;;;;;;6287812;28;20287;-70
2022/12/10 17:54:47;;;;;;;6.30;5.50;;;;;;;;;;6287332;28;20378;-69
2022/12/10 17:57:53;;;;;;;3.53;3.33;;;;;;;;;;6287357;28;20309;-68
2022/12/10 18:00:58;;;;;;;3.70;3.30;;;;;;;;;;6287136;28;20271;-70
2022/12/10 18:04:03;;;;;;;2.70;2.60;;;;;;;;;;6286654;28;20592;-68
2022/12/10 18:07:12;;;;;;;2.63;2.53;;;;;;;;;;6289132;28;20274;-69
2022/12/10 18:10:21;;;;;;;6.30;3.37;;;;;;;;;;6288208;28;20563;-69
2022/12/10 18:13:27;;;;;;;3.47;3.27;;;;;;;;;;6286612;28;20298;-68
2022/12/10 18:16:34;;;;;;;3.57;3.20;;;;;;;;;;6287107;28;20356;-68
2022/12/10 18:19:40;;;;;;;3.40;3.30;;;;;;;;;;6286239;28;20298;-69
2022/12/10 18:22:49;;;;;;;4.77;4.47;;;;;;;;;;6286436;28;20293;-69
2022/12/10 18:25:55;;;;;;;5.17;4.73;;;;;;;;;;6287125;28;20282;-69
2022/12/10 18:29:02;;;;;;;8.47;7.57;;;;;;;;;;6286729;28;20306;-70
2022/12/10 18:32:07;;;;;;;3.73;3.43;;;;;;;;;;6286628;28;20580;-70
2022/12/10 18:35:13;;;;;;;3.20;2.90;;;;;;;;;;6287435;28;20268;-69
2022/12/10 18:38:18;;;;;;;4.23;3.90;;;;;;;;;;6286274;28;20636;-69
2022/12/10 18:41:24;;;;;;;4.27;3.93;;;;;;;;;;6286875;28;20268;-71
2022/12/10 18:44:31;;;;;;;3.13;2.93;;;;;;;;;;6286294;28;20295;-70
2022/12/10 18:47:36;;;;;;;2.97;2.87;;;;;;;;;;6286193;28;20291;-71
2022/12/10 18:50:42;;;;;;;2.73;2.63;;;;;;;;;;6286071;28;20387;-72
2022/12/10 18:53:47;;;;;;;2.93;2.83;;;;;;;;;;6286180;28;20319;-70
2022/12/10 18:56:52;;;;;;;2.57;2.47;;;;;;;;;;6268526;28;20267;-71
2022/12/10 19:00:21;;;;;;;3.40;2.67;;;;;;;;;;6267642;28;20268;-71
2022/12/10 19:03:26;;;;;;;3.07;2.83;;;;;;;;;;6285686;28;20581;-69
2022/12/10 19:06:33;;;;;;;3.17;2.80;;;;;;;;;;6267780;28;20298;-70